Main page
METAR-TAF:

METAR-TAF

Airports :

Krabi International Airport

Krabi, Thailand

latitude: 08-06-03N, longitude: 098-59-05E, elevation: 25 m

Current weather observation

The report was made 27 minutes ago, at 14:00 UTC
Wind 3 kt from the East/Northeast, varying between Northeast and East
Temperature 26°C
Humidity 70%
Pressure 1015 hPa
Visibility 10 km or more
Few clouds at a height of 2000 ft

METAR: VTSG 221400Z 06003KT 040V100 9999 FEW020 26/20 Q1015 NOSIG

Time: 21:27 (14:27 UTC)

Forecast

The report was made 3 hours and 27 minutes ago, at 11:00 UTC
Forecast valid from 22 at 12 UTC to 23 at 12 UTC
Wind 6 kt from the East/Northeast
Visibility 10 km or more
Scattered clouds at a height of 2000 ft

TAF: VTSG 221100Z 2212/2312 06006KT 9999 SCT020

Weather observations and forecasts of more than 4000 airports (METAR and TAF reports).

The available stations are represented by yellow and red dots on the map.

Hover mouse over dot to see the name of the station.

Then click to see weather observations and forecasts.

To change the map : click on the green buttons with a black cross to zoom in, on the green button with a dash to zoom out, or on the green arrows for adjacent maps.


METAR-TAF: